(°C)
17°
17°
16°
15°
14°
13°
13°
(°C)
14°
14°
13°
12°
12°
11°
11°
Ю
Ю
ЮЮЗ
ЮЮЗ
ЮЮЗ
Ю
Ю
(км/ч)
10-18
11-18
11-18
11-17
9-13
8-15
8-15
(мм)
0
0
0
0
0
0
0
(%)
1
14
19
21
16
21
16

Высота солнцестояния

/ 27.4°
sun-icon
UV 2
06:26
18:28
Прибывающая луна (8°)
06:44
18:51

METAR для 52.17°С 20.97°В (EPWA)

Время Условия Температура/
Точка росы
Ветер Видимость Погода Облачность Давление Изменить Необработанный
VFR 17°C / 10°C 150º variable 120º to 180º 6kt >10km - Few Clouds 3400ft 1005 No Significant change EPWA 261230Z 15006KT 120V180 9999 FEW034 17/10 Q1005 NOSIG
VFR 18°C / 10°C 190º variable 140º to 220º 6kt >10km - Few Clouds 3200ft 1006 No Significant change EPWA 261130Z 19006KT 140V220 9999 FEW032 18/10 Q1006 NOSIG
VFR 17°C / 11°C 180º variable 150º to 210º 6kt >10km - Clouds and Visibility OK 1006 No Significant change EPWA 261030Z 18006KT 150V210 CAVOK 17/11 Q1006 NOSIG
VFR 16°C / 11°C 160º 7kt >10km - Clouds and Visibility OK 1006 No Significant change EPWA 261000Z 16007KT CAVOK 16/11 Q1006 NOSIG
VFR 15°C / 11°C 140º 8kt >10km - Clouds and Visibility OK 1006 No Significant change EPWA 260930Z 14008KT CAVOK 15/11 Q1006 NOSIG
MVFR 11°C / 11°C 140º variable 110º to 170º 5kt 5000m Mist Vertical Visibility of 0ft. 1007 No Significant change EPWA 260830Z 14005KT 110V170 5000 BR SCT002 11/11 Q1007 NOSIG
LIFR 10°C / 9°C 130º variable 090º to 160º 4kt 1800m. Runway 11: Visual range is 800m and increasing. patches Fog Mist Vertical Visibility of 0ft. 1007 Becoming: Visibility 4000. Mist . Scattered Clouds 200ft. EPWA 260800Z 13004KT 090V160 1800 0650W R11/0800U BCFG BR BKN002 10/09 Q1007 BECMG 4000 BR SCT002
LIFR 8°C / 8°C 140º 5kt 450m. Runway 11: Visual range is 750m and decreasing. Fog Vertical Visibility of 0ft. 1007 Becoming: Visibility 1000. Mist . Scattered Clouds 100ft. EPWA 260730Z 14005KT 0450 0350SE R11/0750D FG BKN002 08/08 Q1007 BECMG 1000 BR SCT001
LIFR 8°C / 7°C 130º 4kt 640m. Runway 11: Visual range is 450m. Fog Vertical Visibility of 0ft. 1007 Becoming: Visibility 1000. Mist . Scattered Clouds 200ft. EPWA 260700Z 13004KT 0650 0350W R11/0450N FG BKN002 08/07 Q1007 BECMG 1000 BR SCT002
LIFR 7°C / 7°C 140º 6kt 550m. Runway 11: Visual range is 600m. Fog Vertical Visibility of 0ft. 1007 Becoming: Visibility 1000. Mist . Scattered Clouds 200ft. EPWA 260630Z 14006KT 0550 0450W R11/0600N FG BKN002 07/07 Q1007 BECMG 1000 BR SCT002
LIFR 7°C / 6°C 120º 5kt 1000m. Runway 11: Visual range is 600m and increasing. patches Fog Mist Vertical Visibility of 0ft. 1007 Becoming: Visibility 1500. Mist . Scattered Clouds 200ft. EPWA 260600Z 12005KT 1000 0450W R11/0600U BCFG BR BKN002 07/06 Q1007 BECMG 1500 BR SCT002
LIFR 6°C / 6°C 120º 4kt 550m. Runway 11: Visual range is 400m and decreasing. Fog Vertical Visibility of 0ft. 1007 Becoming: Visibility 1000. Mist . Scattered Clouds 100ft. EPWA 260530Z 12004KT 0550 0350W R11/0400D FG BKN001 06/06 Q1007 BECMG 1000 BR SCT001
LIFR 5°C / 5°C 140º 3kt 350m. Runway 11: Visual range is 450m. Fog Vertical Visibility of 0ft.
Broken Clouds 400ft
1007 Temporary: Visibility 0300. Fog . EPWA 260430Z 14003KT 0350 0300NW R11/0450N FG SCT001 BKN004 05/05 Q1007 TEMPO 0300 FG
LIFR 5°C / 5°C 130º 3kt 350m. Runway 11: Visual range is 400m. Fog Vertical Visibility of 0ft. 1007 Temporary: Visibility 0300. Fog . EPWA 260400Z 13003KT 0350 0300SE R11/0400N FG BKN001 05/05 Q1007 TEMPO 0300 FG
LIFR 6°C / 6°C 140º 4kt 500m. Runway 11: Visual range is 800m and decreasing. Fog Vertical Visibility of 0ft. 1008 Temporary: Visibility 0300. Fog . EPWA 260330Z 14004KT 0500 0400SE R11/0800D FG SCT004 06/06 Q1008 TEMPO 0300 FG
LIFR 6°C / 6°C 130º 4kt 450m. Runway 11: Visual range is 650m and decreasing. Fog Vertical Visibility of 0ft. 1008 Temporary: Visibility 0300. Fog . EPWA 260300Z 13004KT 0450 0300W R11/0650D FG FEW004 06/06 Q1008 TEMPO 0300 FG
LIFR 6°C / 6°C 120º 3kt 350m. Runway 11: Visual range is 450m and increasing. Fog Vertical Visibility of 0ft. 1008 Temporary: Visibility 0200. Fog . EPWA 260230Z 12003KT 0350 0250SE R11/0450U FG FEW004 06/06 Q1008 TEMPO 0200 FG
LIFR 7°C / 7°C 120º 3kt 1000m. Runway 11: Visual range is 1100m and increasing. patches Fog Mist Vertical Visibility of 0ft. 1008 Temporary: Visibility 0200. Fog . EPWA 260200Z 12003KT 1000 0300SE R11/1100U BCFG BR FEW004 07/07 Q1008 TEMPO 0200 FG
LIFR 7°C / 7°C 110º 3kt 1500m patches Fog Mist Vertical Visibility of 0ft. 1008 Temporary: Visibility 0500. Fog . EPWA 260130Z 11003KT 1500 0400SE BCFG BR FEW005 07/07 Q1008 TEMPO 0500 FG
IFR 7°C / 7°C 130º 4kt 3500m. Runway 11: Visual range is 700m. patches Fog Mist Vertical Visibility of 0ft. 1008 Temporary: Visibility 0700. Fog . EPWA 260100Z 13004KT 3500 0700W R11/0700N BCFG BR NSC 07/07 Q1008 TEMPO 0700 FG
IFR 8°C / 7°C 130º 3kt 4300m patches Fog Mist Vertical Visibility of 0ft. 1008 Temporary: Visibility 0600. Fog . EPWA 260030Z 13003KT 4300 0600SE BCFG BR NSC 08/07 Q1008 TEMPO 0600 FG
IFR 7°C / 7°C 120º 3kt 4000m patches Fog Mist Vertical Visibility of 0ft. 1008 Temporary: Visibility 0600. Fog . EPWA 260000Z 12003KT 4000 0450W BCFG BR NSC 07/07 Q1008 TEMPO 0600 FG
MVFR 7°C / 7°C 130º 3kt 5000m shallow Fog Mist Vertical Visibility of 0ft. 1008 Temporary: Visibility 3000. Mist . EPWA 252330Z 13003KT 5000 MIFG BR NSC 07/07 Q1008 TEMPO 3000 BR
IFR 8°C / 8°C 140º 2kt 3500m patches Fog Mist Vertical Visibility of 0ft. 1009 Temporary: Visibility 0600. Fog . EPWA 252300Z 14002KT 3500 0650SE BCFG BR NSC 08/08 Q1009 TEMPO 0600 FG

VFR

17°C / 10°C

[Больше]
Ветер 150º variable 120º to 180º 6kt
Видимость >10km
Погода -
Облачность Few Clouds 3400ft
Давление 1005
Изменить No Significant change
Необработанный EPWA 261230Z 15006KT 120V180 9999 FEW034 17/10 Q1005 NOSIG

VFR

18°C / 10°C

[Больше]
Ветер 190º variable 140º to 220º 6kt
Видимость >10km
Погода -
Облачность Few Clouds 3200ft
Давление 1006
Изменить No Significant change
Необработанный EPWA 261130Z 19006KT 140V220 9999 FEW032 18/10 Q1006 NOSIG

VFR

17°C / 11°C

[Больше]
Ветер 180º variable 150º to 210º 6kt
Видимость >10km
Погода -
Облачность Clouds and Visibility OK
Давление 1006
Изменить No Significant change
Необработанный EPWA 261030Z 18006KT 150V210 CAVOK 17/11 Q1006 NOSIG

VFR

16°C / 11°C

[Больше]
Ветер 160º 7kt
Видимость >10km
Погода -
Облачность Clouds and Visibility OK
Давление 1006
Изменить No Significant change
Необработанный EPWA 261000Z 16007KT CAVOK 16/11 Q1006 NOSIG

VFR

15°C / 11°C

[Больше]
Ветер 140º 8kt
Видимость >10km
Погода -
Облачность Clouds and Visibility OK
Давление 1006
Изменить No Significant change
Необработанный EPWA 260930Z 14008KT CAVOK 15/11 Q1006 NOSIG

MVFR

11°C / 11°C

[Больше]
Ветер 140º variable 110º to 170º 5kt
Видимость 5000m
Погода Mist
Облачность Vertical Visibility of 0ft.
Давление 1007
Изменить No Significant change
Необработанный EPWA 260830Z 14005KT 110V170 5000 BR SCT002 11/11 Q1007 NOSIG

LIFR

10°C / 9°C

[Больше]
Ветер 130º variable 090º to 160º 4kt
Видимость 1800m. Runway 11: Visual range is 800m and increasing.
Погода patches Fog Mist
Облачность Vertical Visibility of 0ft.
Давление 1007
Изменить Becoming: Visibility 4000. Mist . Scattered Clouds 200ft.
Необработанный EPWA 260800Z 13004KT 090V160 1800 0650W R11/0800U BCFG BR BKN002 10/09 Q1007 BECMG 4000 BR SCT002

LIFR

8°C / 8°C

[Больше]
Ветер 140º 5kt
Видимость 450m. Runway 11: Visual range is 750m and decreasing.
Погода Fog
Облачность Vertical Visibility of 0ft.
Давление 1007
Изменить Becoming: Visibility 1000. Mist . Scattered Clouds 100ft.
Необработанный EPWA 260730Z 14005KT 0450 0350SE R11/0750D FG BKN002 08/08 Q1007 BECMG 1000 BR SCT001

LIFR

8°C / 7°C

[Больше]
Ветер 130º 4kt
Видимость 640m. Runway 11: Visual range is 450m.
Погода Fog
Облачность Vertical Visibility of 0ft.
Давление 1007
Изменить Becoming: Visibility 1000. Mist . Scattered Clouds 200ft.
Необработанный EPWA 260700Z 13004KT 0650 0350W R11/0450N FG BKN002 08/07 Q1007 BECMG 1000 BR SCT002

LIFR

7°C / 7°C

[Больше]
Ветер 140º 6kt
Видимость 550m. Runway 11: Visual range is 600m.
Погода Fog
Облачность Vertical Visibility of 0ft.
Давление 1007
Изменить Becoming: Visibility 1000. Mist . Scattered Clouds 200ft.
Необработанный EPWA 260630Z 14006KT 0550 0450W R11/0600N FG BKN002 07/07 Q1007 BECMG 1000 BR SCT002

LIFR

7°C / 6°C

[Больше]
Ветер 120º 5kt
Видимость 1000m. Runway 11: Visual range is 600m and increasing.
Погода patches Fog Mist
Облачность Vertical Visibility of 0ft.
Давление 1007
Изменить Becoming: Visibility 1500. Mist . Scattered Clouds 200ft.
Необработанный EPWA 260600Z 12005KT 1000 0450W R11/0600U BCFG BR BKN002 07/06 Q1007 BECMG 1500 BR SCT002

LIFR

6°C / 6°C

[Больше]
Ветер 120º 4kt
Видимость 550m. Runway 11: Visual range is 400m and decreasing.
Погода Fog
Облачность Vertical Visibility of 0ft.
Давление 1007
Изменить Becoming: Visibility 1000. Mist . Scattered Clouds 100ft.
Необработанный EPWA 260530Z 12004KT 0550 0350W R11/0400D FG BKN001 06/06 Q1007 BECMG 1000 BR SCT001

LIFR

5°C / 5°C

[Больше]
Ветер 140º 3kt
Видимость 350m. Runway 11: Visual range is 450m.
Погода Fog
Облачность Vertical Visibility of 0ft.
Broken Clouds 400ft
Давление 1007
Изменить Temporary: Visibility 0300. Fog .
Необработанный EPWA 260430Z 14003KT 0350 0300NW R11/0450N FG SCT001 BKN004 05/05 Q1007 TEMPO 0300 FG

LIFR

5°C / 5°C

[Больше]
Ветер 130º 3kt
Видимость 350m. Runway 11: Visual range is 400m.
Погода Fog
Облачность Vertical Visibility of 0ft.
Давление 1007
Изменить Temporary: Visibility 0300. Fog .
Необработанный EPWA 260400Z 13003KT 0350 0300SE R11/0400N FG BKN001 05/05 Q1007 TEMPO 0300 FG

LIFR

6°C / 6°C

[Больше]
Ветер 140º 4kt
Видимость 500m. Runway 11: Visual range is 800m and decreasing.
Погода Fog
Облачность Vertical Visibility of 0ft.
Давление 1008
Изменить Temporary: Visibility 0300. Fog .
Необработанный EPWA 260330Z 14004KT 0500 0400SE R11/0800D FG SCT004 06/06 Q1008 TEMPO 0300 FG

LIFR

6°C / 6°C

[Больше]
Ветер 130º 4kt
Видимость 450m. Runway 11: Visual range is 650m and decreasing.
Погода Fog
Облачность Vertical Visibility of 0ft.
Давление 1008
Изменить Temporary: Visibility 0300. Fog .
Необработанный EPWA 260300Z 13004KT 0450 0300W R11/0650D FG FEW004 06/06 Q1008 TEMPO 0300 FG

LIFR

6°C / 6°C

[Больше]
Ветер 120º 3kt
Видимость 350m. Runway 11: Visual range is 450m and increasing.
Погода Fog
Облачность Vertical Visibility of 0ft.
Давление 1008
Изменить Temporary: Visibility 0200. Fog .
Необработанный EPWA 260230Z 12003KT 0350 0250SE R11/0450U FG FEW004 06/06 Q1008 TEMPO 0200 FG

LIFR

7°C / 7°C

[Больше]
Ветер 120º 3kt
Видимость 1000m. Runway 11: Visual range is 1100m and increasing.
Погода patches Fog Mist
Облачность Vertical Visibility of 0ft.
Давление 1008
Изменить Temporary: Visibility 0200. Fog .
Необработанный EPWA 260200Z 12003KT 1000 0300SE R11/1100U BCFG BR FEW004 07/07 Q1008 TEMPO 0200 FG

LIFR

7°C / 7°C

[Больше]
Ветер 110º 3kt
Видимость 1500m
Погода patches Fog Mist
Облачность Vertical Visibility of 0ft.
Давление 1008
Изменить Temporary: Visibility 0500. Fog .
Необработанный EPWA 260130Z 11003KT 1500 0400SE BCFG BR FEW005 07/07 Q1008 TEMPO 0500 FG

IFR

7°C / 7°C

[Больше]
Ветер 130º 4kt
Видимость 3500m. Runway 11: Visual range is 700m.
Погода patches Fog Mist
Облачность Vertical Visibility of 0ft.
Давление 1008
Изменить Temporary: Visibility 0700. Fog .
Необработанный EPWA 260100Z 13004KT 3500 0700W R11/0700N BCFG BR NSC 07/07 Q1008 TEMPO 0700 FG

IFR

8°C / 7°C

[Больше]
Ветер 130º 3kt
Видимость 4300m
Погода patches Fog Mist
Облачность Vertical Visibility of 0ft.
Давление 1008
Изменить Temporary: Visibility 0600. Fog .
Необработанный EPWA 260030Z 13003KT 4300 0600SE BCFG BR NSC 08/07 Q1008 TEMPO 0600 FG

IFR

7°C / 7°C

[Больше]
Ветер 120º 3kt
Видимость 4000m
Погода patches Fog Mist
Облачность Vertical Visibility of 0ft.
Давление 1008
Изменить Temporary: Visibility 0600. Fog .
Необработанный EPWA 260000Z 12003KT 4000 0450W BCFG BR NSC 07/07 Q1008 TEMPO 0600 FG

MVFR

7°C / 7°C

[Больше]
Ветер 130º 3kt
Видимость 5000m
Погода shallow Fog Mist
Облачность Vertical Visibility of 0ft.
Давление 1008
Изменить Temporary: Visibility 3000. Mist .
Необработанный EPWA 252330Z 13003KT 5000 MIFG BR NSC 07/07 Q1008 TEMPO 3000 BR

IFR

8°C / 8°C

[Больше]
Ветер 140º 2kt
Видимость 3500m
Погода patches Fog Mist
Облачность Vertical Visibility of 0ft.
Давление 1009
Изменить Temporary: Visibility 0600. Fog .
Необработанный EPWA 252300Z 14002KT 3500 0650SE BCFG BR NSC 08/08 Q1009 TEMPO 0600 FG

TAF для 52.17°С 20.97°В (EPWA)

From till


From till Wind 170º 8kt. Visibility 10km or more. Scattered Clouds 3000ft.
Temporarly from till Showers Rain . Broken Clouds 3000ft.
With 40% probability, Temporarly from till Wind variable 15kt. Gust 25kt. Thunderstorm Rain .
Becoming from till Wind 170º 8kt. Visibility 3000m. Mist . Broken Clouds 400ft.
Temporarly from till Visibility 193.121m. Fog . Overcast 100ft.
Becoming from till Wind 170º 8kt. Visibility 10km or more. Nil Significant Cloud.

Необработанный: TAF EPWA 261130Z 2612/2712 17008KT 9999 SCT030 TEMPO 2612/2622 SHRA BKN030CB PROB40 TEMPO 2613/2619 VRB15G25KT TSRA BECMG 2620/2623 3000 BR BKN004 TEMPO 2623/2708 0200 FG OVC001 BECMG 2708/2710 CAVOK

Радарный и сверхкраткосрочный прогноз осадков для 52.17°С 20.97°В

Морось
Незначительные
Умеренные
Сильные
Очень Сильные
Град

Индикатор местности находится на 52.17°С 20.97°В. Анимация показывает радар осадков за последний час, а также прогноз погоды для 1h. Морось или небольшой снег могут быть невидимы для радара. Интенсивность осадков имеет цветовую кодировку - от светло-голубого до оранжевого.

Текущие спутниковые изображения и снимки дождя для 52.17°С 20.97°В

Указатель местности находится на 52.17°С 20.97°В. [Больше]

Спутниковое изображение в реальном времени сочетает в себе видимый свет в дневное время с инфракрасным излучением в ночное время. Ночью изображение получается не темным, так как инфракрасное излучение может обнаружить разницу температур. К сожалению, низкие облака и туман трудно отличить от температуры у поверхности земли и поэтому могут быть почти незаметны ночью. Спутниковые снимки Meteosat для Европы обновляются каждые 5 минут в режиме реального времени.Снимки GOES-16/GOES-17 (Северная и Южная Америка) и Химавари (Азия) обновляются каждые 10 минут.

Precipitation is estimated from radar and satellites. Precipitation estimates from satellites are less accurate at night than during daytime. Оранжевыми крестами отмечаются места,где обнаруживается молния (болееЕвропа).

Копирайт 2022 EUMETSAT / meteoblue. Данные о молниях предоставляются со стороны nowcast.

Обратно к последним данным